sensor_id;sensor_type;location;lat;lon;timestamp;pressure;altitude;pressure_sealevel;temperature;humidity
23899;BME280;20544;50.018;20.010;2023-12-14T00:00:28;97449.80;;;3.73;100.00
23899;BME280;20544;50.018;20.010;2023-12-14T00:03:51;97447.53;;;3.70;100.00
23899;BME280;20544;50.018;20.010;2023-12-14T00:07:13;97441.80;;;3.67;100.00
23899;BME280;20544;50.018;20.010;2023-12-14T00:13:47;97444.91;;;3.70;100.00
23899;BME280;20544;50.018;20.010;2023-12-14T00:17:08;97460.28;;;3.73;100.00
23899;BME280;20544;50.018;20.010;2023-12-14T00:20:25;97461.95;;;3.66;100.00
23899;BME280;20544;50.018;20.010;2023-12-14T00:24:04;97459.98;;;3.68;100.00
23899;BME280;20544;50.018;20.010;2023-12-14T00:27:24;97467.17;;;3.75;100.00
23899;BME280;20544;50.018;20.010;2023-12-14T00:30:50;97462.58;;;3.77;100.00
23899;BME280;20544;50.018;20.010;2023-12-14T00:34:07;97469.11;;;3.81;100.00
23899;BME280;20544;50.018;20.010;2023-12-14T00:37:46;97475.02;;;3.83;100.00
23899;BME280;20544;50.018;20.010;2023-12-14T00:41:05;97473.02;;;3.85;100.00
23899;BME280;20544;50.018;20.010;2023-12-14T00:44:43;97484.17;;;3.87;100.00
23899;BME280;20544;50.018;20.010;2023-12-14T01:01:37;97496.86;;;3.75;100.00
23899;BME280;20544;50.018;20.010;2023-12-14T01:05:32;97493.27;;;3.68;100.00
23899;BME280;20544;50.018;20.010;2023-12-14T01:08:49;97498.64;;;3.75;100.00
23899;BME280;20544;50.018;20.010;2023-12-14T01:12:07;97501.09;;;3.76;100.00
23899;BME280;20544;50.018;20.010;2023-12-14T01:15:36;97499.00;;;3.71;100.00
23899;BME280;20544;50.018;20.010;2023-12-14T01:19:10;97513.58;;;3.74;100.00
23899;BME280;20544;50.018;20.010;2023-12-14T01:22:27;97507.34;;;3.75;100.00
23899;BME280;20544;50.018;20.010;2023-12-14T01:25:48;97503.39;;;3.79;100.00
23899;BME280;20544;50.018;20.010;2023-12-14T01:29:10;97493.88;;;3.78;100.00
23899;BME280;20544;50.018;20.010;2023-12-14T01:32:27;97503.21;;;3.81;100.00
23899;BME280;20544;50.018;20.010;2023-12-14T01:35:55;97499.61;;;3.82;100.00
23899;BME280;20544;50.018;20.010;2023-12-14T01:39:32;97488.16;;;3.75;100.00
23899;BME280;20544;50.018;20.010;2023-12-14T01:43:26;97494.38;;;3.73;100.00
23899;BME280;20544;50.018;20.010;2023-12-14T01:47:00;97494.08;;;3.68;100.00
23899;BME280;20544;50.018;20.010;2023-12-14T01:50:26;97495.72;;;3.69;100.00
23899;BME280;20544;50.018;20.010;2023-12-14T01:53:52;97500.83;;;3.63;100.00
23899;BME280;20544;50.018;20.010;2023-12-14T01:57:40;97495.42;;;3.56;100.00
23899;BME280;20544;50.018;20.010;2023-12-14T02:01:14;97504.13;;;3.56;100.00
23899;BME280;20544;50.018;20.010;2023-12-14T02:05:00;97496.41;;;3.55;100.00
23899;BME280;20544;50.018;20.010;2023-12-14T02:08:29;97497.41;;;3.54;100.00
23899;BME280;20544;50.018;20.010;2023-12-14T02:11:55;97491.51;;;3.52;100.00
23899;BME280;20544;50.018;20.010;2023-12-14T02:15:16;97491.83;;;3.49;100.00
23899;BME280;20544;50.018;20.010;2023-12-14T02:18:33;97491.20;;;3.47;100.00
23899;BME280;20544;50.018;20.010;2023-12-14T02:21:50;97504.48;;;3.45;100.00
23899;BME280;20544;50.018;20.010;2023-12-14T02:25:08;97502.66;;;3.54;100.00
23899;BME280;20544;50.018;20.010;2023-12-14T02:28:25;97506.39;;;3.60;100.00
23899;BME280;20544;50.018;20.010;2023-12-14T02:31:42;97509.67;;;3.62;100.00
23899;BME280;20544;50.018;20.010;2023-12-14T02:38:57;97522.63;;;3.55;100.00
23899;BME280;20544;50.018;20.010;2023-12-14T02:43:44;97536.22;;;3.59;100.00
23899;BME280;20544;50.018;20.010;2023-12-14T02:47:17;97537.36;;;3.64;100.00
23899;BME280;20544;50.018;20.010;2023-12-14T02:50:34;97539.49;;;3.69;100.00
23899;BME280;20544;50.018;20.010;2023-12-14T02:57:23;97557.18;;;3.75;100.00
23899;BME280;20544;50.018;20.010;2023-12-14T03:00:40;97556.17;;;3.76;100.00
23899;BME280;20544;50.018;20.010;2023-12-14T03:04:11;97556.52;;;3.73;100.00
23899;BME280;20544;50.018;20.010;2023-12-14T03:07:27;97559.80;;;3.75;100.00
23899;BME280;20544;50.018;20.010;2023-12-14T03:10:57;97564.03;;;3.76;100.00
23899;BME280;20544;50.018;20.010;2023-12-14T03:14:16;97565.19;;;3.73;100.00
23899;BME280;20544;50.018;20.010;2023-12-14T03:17:49;97563.23;;;3.67;100.00
23899;BME280;20544;50.018;20.010;2023-12-14T03:21:25;97570.44;;;3.73;100.00
23899;BME280;20544;50.018;20.010;2023-12-14T03:24:58;97578.83;;;3.69;100.00
23899;BME280;20544;50.018;20.010;2023-12-14T03:28:19;97576.20;;;3.69;100.00
23899;BME280;20544;50.018;20.010;2023-12-14T03:31:38;97569.63;;;3.73;100.00
23899;BME280;20544;50.018;20.010;2023-12-14T03:35:03;97576.66;;;3.72;100.00
23899;BME280;20544;50.018;20.010;2023-12-14T03:38:26;97583.90;;;3.70;100.00
23899;BME280;20544;50.018;20.010;2023-12-14T03:41:50;97587.01;;;3.74;100.00
23899;BME280;20544;50.018;20.010;2023-12-14T03:45:12;97594.53;;;3.77;100.00
23899;BME280;20544;50.018;20.010;2023-12-14T03:48:50;97587.16;;;3.72;100.00
23899;BME280;20544;50.018;20.010;2023-12-14T03:52:27;97602.92;;;3.64;100.00
23899;BME280;20544;50.018;20.010;2023-12-14T03:55:56;97606.03;;;3.68;100.00
23899;BME280;20544;50.018;20.010;2023-12-14T03:59:42;97616.84;;;3.73;100.00
23899;BME280;20544;50.018;20.010;2023-12-14T04:03:25;97612.26;;;3.67;100.00
23899;BME280;20544;50.018;20.010;2023-12-14T04:06:45;97628.83;;;3.59;100.00
23899;BME280;20544;50.018;20.010;2023-12-14T04:10:08;97636.20;;;3.55;100.00
23899;BME280;20544;50.018;20.010;2023-12-14T04:16:45;97643.23;;;3.55;100.00
23899;BME280;20544;50.018;20.010;2023-12-14T04:20:14;97643.58;;;3.60;100.00
23899;BME280;20544;50.018;20.010;2023-12-14T04:23:45;97649.63;;;3.61;100.00
23899;BME280;20544;50.018;20.010;2023-12-14T04:27:08;97657.98;;;3.56;100.00
23899;BME280;20544;50.018;20.010;2023-12-14T04:30:30;97657.83;;;3.49;100.00
23899;BME280;20544;50.018;20.010;2023-12-14T04:34:56;97672.40;;;3.44;100.00
23899;BME280;20544;50.018;20.010;2023-12-14T04:38:32;97680.44;;;3.42;100.00
23899;BME280;20544;50.018;20.010;2023-12-14T04:41:55;97679.12;;;3.46;100.00
23899;BME280;20544;50.018;20.010;2023-12-14T04:45:55;97684.03;;;3.58;100.00
23899;BME280;20544;50.018;20.010;2023-12-14T04:49:34;97682.57;;;3.63;100.00
23899;BME280;20544;50.018;20.010;2023-12-14T04:53:47;97693.55;;;3.67;100.00
23899;BME280;20544;50.018;20.010;2023-12-14T04:57:10;97692.41;;;3.69;100.00
23899;BME280;20544;50.018;20.010;2023-12-14T05:00:54;97704.70;;;3.61;100.00
23899;BME280;20544;50.018;20.010;2023-12-14T05:04:36;97704.68;;;3.52;100.00
23899;BME280;20544;50.018;20.010;2023-12-14T05:08:47;97711.06;;;3.33;100.00
23899;BME280;20544;50.018;20.010;2023-12-14T05:12:18;97706.46;;;3.27;100.00
23899;BME280;20544;50.018;20.010;2023-12-14T05:15:49;97712.05;;;3.24;100.00
23899;BME280;20544;50.018;20.010;2023-12-14T05:19:41;97709.89;;;3.28;100.00
23899;BME280;20544;50.018;20.010;2023-12-14T05:23:24;97722.72;;;3.39;100.00
23899;BME280;20544;50.018;20.010;2023-12-14T05:26:44;97735.81;;;3.47;100.00
23899;BME280;20544;50.018;20.010;2023-12-14T05:30:22;97730.59;;;3.55;100.00
23899;BME280;20544;50.018;20.010;2023-12-14T05:33:41;97736.16;;;3.61;100.00
23899;BME280;20544;50.018;20.010;2023-12-14T05:37:04;97736.66;;;3.64;100.00
23899;BME280;20544;50.018;20.010;2023-12-14T05:40:32;97743.38;;;3.67;100.00
23899;BME280;20544;50.018;20.010;2023-12-14T05:43:51;97753.53;;;3.70;100.00
23899;BME280;20544;50.018;20.010;2023-12-14T05:47:29;97754.37;;;3.70;100.00
23899;BME280;20544;50.018;20.010;2023-12-14T05:51:04;97756.33;;;3.68;100.00
23899;BME280;20544;50.018;20.010;2023-12-14T05:54:50;97773.70;;;3.69;100.00
23899;BME280;20544;50.018;20.010;2023-12-14T05:58:45;97774.38;;;3.71;100.00
23899;BME280;20544;50.018;20.010;2023-12-14T06:02:49;97790.75;;;3.73;100.00
23899;BME280;20544;50.018;20.010;2023-12-14T06:06:14;97796.50;;;3.77;100.00
23899;BME280;20544;50.018;20.010;2023-12-14T06:09:31;97797.97;;;3.80;100.00
23899;BME280;20544;50.018;20.010;2023-12-14T06:12:48;97802.23;;;3.81;100.00
23899;BME280;20544;50.018;20.010;2023-12-14T06:16:15;97808.16;;;3.83;100.00
23899;BME280;20544;50.018;20.010;2023-12-14T06:19:48;97807.66;;;3.79;100.00
23899;BME280;20544;50.018;20.010;2023-12-14T06:23:05;97815.69;;;3.78;100.00
23899;BME280;20544;50.018;20.010;2023-12-14T06:26:22;97816.67;;;3.77;100.00
23899;BME280;20544;50.018;20.010;2023-12-14T06:29:39;97815.52;;;3.79;100.00
23899;BME280;20544;50.018;20.010;2023-12-14T06:33:30;97819.94;;;3.79;100.00
23899;BME280;20544;50.018;20.010;2023-12-14T06:37:03;97820.77;;;3.79;100.00
23899;BME280;20544;50.018;20.010;2023-12-14T06:40:38;97832.07;;;3.80;100.00
23899;BME280;20544;50.018;20.010;2023-12-14T06:44:16;97835.19;;;3.83;100.00
23899;BME280;20544;50.018;20.010;2023-12-14T06:48:11;97849.15;;;3.84;100.00
23899;BME280;20544;50.018;20.010;2023-12-14T06:51:55;97854.39;;;3.84;100.00
23899;BME280;20544;50.018;20.010;2023-12-14T06:55:18;97850.94;;;3.83;100.00
23899;BME280;20544;50.018;20.010;2023-12-14T06:59:13;97859.78;;;3.82;100.00
23899;BME280;20544;50.018;20.010;2023-12-14T07:02:50;97865.86;;;3.83;100.00
23899;BME280;20544;50.018;20.010;2023-12-14T07:06:13;97868.63;;;3.81;100.00
23899;BME280;20544;50.018;20.010;2023-12-14T07:09:34;97868.16;;;3.78;100.00
23899;BME280;20544;50.018;20.010;2023-12-14T07:13:19;97878.14;;;3.74;100.00
23899;BME280;20544;50.018;20.010;2023-12-14T07:17:40;97873.53;;;3.76;100.00
23899;BME280;20544;50.018;20.010;2023-12-14T07:21:08;97888.47;;;3.76;100.00
23899;BME280;20544;50.018;20.010;2023-12-14T07:24:43;97899.42;;;3.71;100.00
23899;BME280;20544;50.018;20.010;2023-12-14T07:28:06;97903.02;;;3.62;100.00
23899;BME280;20544;50.018;20.010;2023-12-14T07:31:32;97908.69;;;3.49;100.00
23899;BME280;20544;50.018;20.010;2023-12-14T07:35:05;97907.02;;;3.39;100.00
23899;BME280;20544;50.018;20.010;2023-12-14T07:38:26;97913.23;;;3.38;100.00
23899;BME280;20544;50.018;20.010;2023-12-14T07:41:59;97914.56;;;3.43;100.00
23899;BME280;20544;50.018;20.010;2023-12-14T07:45:44;97921.96;;;3.47;100.00
23899;BME280;20544;50.018;20.010;2023-12-14T07:49:42;97933.30;;;3.56;100.00
23899;BME280;20544;50.018;20.010;2023-12-14T07:53:18;97934.28;;;3.55;100.00
23899;BME280;20544;50.018;20.010;2023-12-14T07:56:59;97944.77;;;3.55;100.00
23899;BME280;20544;50.018;20.010;2023-12-14T08:00:42;97949.38;;;3.61;100.00
23899;BME280;20544;50.018;20.010;2023-12-14T08:04:24;97949.27;;;3.71;100.00
23899;BME280;20544;50.018;20.010;2023-12-14T08:11:14;97958.33;;;3.85;100.00
23899;BME280;20544;50.018;20.010;2023-12-14T08:14:51;97957.69;;;3.91;100.00
23899;BME280;20544;50.018;20.010;2023-12-14T08:18:08;97967.88;;;3.94;100.00
23899;BME280;20544;50.018;20.010;2023-12-14T08:21:36;97972.66;;;3.99;100.00
23899;BME280;20544;50.018;20.010;2023-12-14T08:24:58;97968.39;;;3.98;100.00
23899;BME280;20544;50.018;20.010;2023-12-14T08:28:19;97986.42;;;4.01;100.00
23899;BME280;20544;50.018;20.010;2023-12-14T08:31:57;97986.59;;;3.99;100.00
23899;BME280;20544;50.018;20.010;2023-12-14T08:35:30;97997.05;;;3.91;100.00
23899;BME280;20544;50.018;20.010;2023-12-14T08:39:29;97997.67;;;3.85;100.00
23899;BME280;20544;50.018;20.010;2023-12-14T08:49:49;98020.87;;;3.98;100.00
23899;BME280;20544;50.018;20.010;2023-12-14T08:53:25;98033.50;;;4.02;100.00
23899;BME280;20544;50.018;20.010;2023-12-14T08:56:47;98038.40;;;3.97;100.00
23899;BME280;20544;50.018;20.010;2023-12-14T09:00:20;98042.03;;;3.96;100.00
23899;BME280;20544;50.018;20.010;2023-12-14T09:03:48;98046.90;;;3.91;100.00
23899;BME280;20544;50.018;20.010;2023-12-14T09:07:07;98060.39;;;3.96;100.00
23899;BME280;20544;50.018;20.010;2023-12-14T09:10:24;98055.95;;;3.97;100.00
23899;BME280;20544;50.018;20.010;2023-12-14T09:13:43;98061.20;;;3.97;100.00
23899;BME280;20544;50.018;20.010;2023-12-14T09:17:01;98059.88;;;3.93;100.00
23899;BME280;20544;50.018;20.010;2023-12-14T09:20:23;98060.34;;;3.88;100.00
23899;BME280;20544;50.018;20.010;2023-12-14T09:23:40;98065.89;;;3.85;100.00
23899;BME280;20544;50.018;20.010;2023-12-14T09:27:05;98066.91;;;3.92;100.00
23899;BME280;20544;50.018;20.010;2023-12-14T09:30:26;98068.61;;;4.01;100.00
23899;BME280;20544;50.018;20.010;2023-12-14T09:33:46;98075.48;;;4.02;100.00
23899;BME280;20544;50.018;20.010;2023-12-14T09:37:06;98074.38;;;4.05;100.00
23899;BME280;20544;50.018;20.010;2023-12-14T09:40:36;98085.68;;;4.05;100.00
23899;BME280;20544;50.018;20.010;2023-12-14T09:44:10;98083.87;;;4.06;100.00
23899;BME280;20544;50.018;20.010;2023-12-14T09:47:41;98081.57;;;4.03;100.00
23899;BME280;20544;50.018;20.010;2023-12-14T09:51:15;98079.73;;;3.95;100.00
23899;BME280;20544;50.018;20.010;2023-12-14T09:54:33;98084.64;;;3.90;100.00
23899;BME280;20544;50.018;20.010;2023-12-14T09:57:51;98091.99;;;3.86;100.00
23899;BME280;20544;50.018;20.010;2023-12-14T10:01:24;98092.97;;;3.85;100.00
23899;BME280;20544;50.018;20.010;2023-12-14T10:04:48;98098.05;;;3.87;100.00
23899;BME280;20544;50.018;20.010;2023-12-14T10:08:09;98092.97;;;3.85;100.00
23899;BME280;20544;50.018;20.010;2023-12-14T10:11:26;98093.16;;;3.92;100.00
23899;BME280;20544;50.018;20.010;2023-12-14T10:14:44;98098.45;;;4.00;100.00
23899;BME280;20544;50.018;20.010;2023-12-14T10:18:01;98094.34;;;3.98;100.00
23899;BME280;20544;50.018;20.010;2023-12-14T10:21:25;98105.19;;;4.03;100.00
23899;BME280;20544;50.018;20.010;2023-12-14T10:24:45;98108.52;;;4.13;100.00
23899;BME280;20544;50.018;20.010;2023-12-14T10:28:02;98097.89;;;4.23;100.00
23899;BME280;20544;50.018;20.010;2023-12-14T10:31:21;98105.81;;;4.31;100.00
23899;BME280;20544;50.018;20.010;2023-12-14T10:34:38;98119.45;;;4.35;100.00
23899;BME280;20544;50.018;20.010;2023-12-14T10:37:58;98127.00;;;4.38;100.00
23899;BME280;20544;50.018;20.010;2023-12-14T10:41:20;98120.73;;;4.31;100.00
23899;BME280;20544;50.018;20.010;2023-12-14T10:44:41;98127.13;;;4.28;100.00
23899;BME280;20544;50.018;20.010;2023-12-14T10:48:03;98131.56;;;4.28;100.00
23899;BME280;20544;50.018;20.010;2023-12-14T10:51:25;98132.02;;;4.23;100.00
23899;BME280;20544;50.018;20.010;2023-12-14T10:54:43;98133.97;;;4.21;100.00
23899;BME280;20544;50.018;20.010;2023-12-14T10:58:02;98140.58;;;4.25;100.00
23899;BME280;20544;50.018;20.010;2023-12-14T11:01:23;98142.41;;;4.33;100.00
23899;BME280;20544;50.018;20.010;2023-12-14T11:04:58;98139.45;;;4.36;100.00
23899;BME280;20544;50.018;20.010;2023-12-14T11:08:18;98143.22;;;4.33;100.00
23899;BME280;20544;50.018;20.010;2023-12-14T11:11:43;98149.15;;;4.35;100.00
23899;BME280;20544;50.018;20.010;2023-12-14T11:15:09;98153.77;;;4.42;100.00
23899;BME280;20544;50.018;20.010;2023-12-14T11:18:26;98150.17;;;4.43;100.00
23899;BME280;20544;50.018;20.010;2023-12-14T11:21:49;98162.16;;;4.45;100.00
23899;BME280;20544;50.018;20.010;2023-12-14T11:25:16;98163.31;;;4.51;100.00
23899;BME280;20544;50.018;20.010;2023-12-14T11:28:39;98165.94;;;4.51;100.00
23899;BME280;20544;50.018;20.010;2023-12-14T11:32:00;98165.31;;;4.57;100.00
23899;BME280;20544;50.018;20.010;2023-12-14T11:35:17;98168.45;;;4.61;100.00
23899;BME280;20544;50.018;20.010;2023-12-14T11:38:35;98166.15;;;4.58;100.00
23899;BME280;20544;50.018;20.010;2023-12-14T11:42:05;98169.28;;;4.61;100.00
23899;BME280;20544;50.018;20.010;2023-12-14T11:45:25;98164.54;;;4.65;100.00
23899;BME280;20544;50.018;20.010;2023-12-14T11:48:43;98166.16;;;4.66;100.00
23899;BME280;20544;50.018;20.010;2023-12-14T11:52:03;98165.19;;;4.67;100.00
23899;BME280;20544;50.018;20.010;2023-12-14T11:55:23;98165.86;;;4.69;100.00
23899;BME280;20544;50.018;20.010;2023-12-14T11:58:43;98165.86;;;4.69;100.00
23899;BME280;20544;50.018;20.010;2023-12-14T12:02:01;98176.67;;;4.66;100.00
23899;BME280;20544;50.018;20.010;2023-12-14T12:05:18;98168.95;;;4.64;100.00
23899;BME280;20544;50.018;20.010;2023-12-14T12:08:41;98190.95;;;4.63;100.00
23899;BME280;20544;50.018;20.010;2023-12-14T12:12:00;98189.16;;;4.64;100.00
23899;BME280;20544;50.018;20.010;2023-12-14T12:15:20;98196.20;;;4.63;100.00
23899;BME280;20544;50.018;20.010;2023-12-14T12:18:38;98203.57;;;4.60;100.00
23899;BME280;20544;50.018;20.010;2023-12-14T12:21:56;98212.97;;;4.62;100.00
23899;BME280;20544;50.018;20.010;2023-12-14T12:25:15;98215.43;;;4.64;100.00
23899;BME280;20544;50.018;20.010;2023-12-14T12:28:33;98221.83;;;4.61;100.00
23899;BME280;20544;50.018;20.010;2023-12-14T12:31:50;98217.22;;;4.63;100.00
23899;BME280;20544;50.018;20.010;2023-12-14T12:35:09;98221.95;;;4.60;100.00
23899;BME280;20544;50.018;20.010;2023-12-14T12:38:27;98223.20;;;4.47;100.00
23899;BME280;20544;50.018;20.010;2023-12-14T12:41:47;98217.77;;;4.41;100.00
23899;BME280;20544;50.018;20.010;2023-12-14T12:45:06;98218.61;;;4.41;100.00
23899;BME280;20544;50.018;20.010;2023-12-14T12:48:25;98229.11;;;4.41;100.00
23899;BME280;20544;50.018;20.010;2023-12-14T12:51:42;98231.22;;;4.37;100.00
23899;BME280;20544;50.018;20.010;2023-12-14T12:54:59;98234.50;;;4.40;100.00
23899;BME280;20544;50.018;20.010;2023-12-14T13:01:50;98248.83;;;4.45;100.00
23899;BME280;20544;50.018;20.010;2023-12-14T13:05:09;98262.92;;;4.44;100.00
23899;BME280;20544;50.018;20.010;2023-12-14T13:08:27;98259.78;;;4.41;100.00
23899;BME280;20544;50.018;20.010;2023-12-14T13:11:46;98269.15;;;4.43;100.00
23899;BME280;20544;50.018;20.010;2023-12-14T13:15:08;98271.94;;;4.42;100.00
23899;BME280;20544;50.018;20.010;2023-12-14T13:18:40;98273.95;;;4.48;100.00
23899;BME280;20544;50.018;20.010;2023-12-14T13:21:57;98282.64;;;4.48;100.00
23899;BME280;20544;50.018;20.010;2023-12-14T13:25:15;98287.44;;;4.53;100.00
23899;BME280;20544;50.018;20.010;2023-12-14T13:28:36;98284.45;;;4.48;100.00
23899;BME280;20544;50.018;20.010;2023-12-14T13:32:09;98298.39;;;4.48;100.00
23899;BME280;20544;50.018;20.010;2023-12-14T13:38:33;98296.28;;;4.52;100.00
23899;BME280;20544;50.018;20.010;2023-12-14T13:41:51;98298.72;;;4.45;100.00
23899;BME280;20544;50.018;20.010;2023-12-14T13:45:10;98308.70;;;4.42;100.00
23899;BME280;20544;50.018;20.010;2023-12-14T13:51:43;98318.53;;;4.40;100.00
23899;BME280;20544;50.018;20.010;2023-12-14T13:55:04;98323.13;;;4.37;100.00
23899;BME280;20544;50.018;20.010;2023-12-14T13:58:23;98331.00;;;4.37;100.00
23899;BME280;20544;50.018;20.010;2023-12-14T14:01:41;98344.95;;;4.38;100.00
23899;BME280;20544;50.018;20.010;2023-12-14T14:04:59;98351.33;;;4.35;100.00
23899;BME280;20544;50.018;20.010;2023-12-14T14:08:25;98352.83;;;4.38;100.00
23899;BME280;20544;50.018;20.010;2023-12-14T14:11:43;98365.80;;;4.40;100.00
23899;BME280;20544;50.018;20.010;2023-12-14T14:15:07;98368.05;;;4.34;100.00
23899;BME280;20544;50.018;20.010;2023-12-14T14:18:26;98364.46;;;4.35;100.00
23899;BME280;20544;50.018;20.010;2023-12-14T14:21:47;98368.05;;;4.34;100.00
23899;BME280;20544;50.018;20.010;2023-12-14T14:25:13;98375.25;;;4.32;100.00
23899;BME280;20544;50.018;20.010;2023-12-14T14:28:36;98387.41;;;4.33;100.00
23899;BME280;20544;50.018;20.010;2023-12-14T14:31:54;98389.91;;;4.35;100.00
23899;BME280;20544;50.018;20.010;2023-12-14T14:35:11;98398.67;;;4.26;100.00
23899;BME280;20544;50.018;20.010;2023-12-14T14:38:31;98406.11;;;4.30;100.00
23899;BME280;20544;50.018;20.010;2023-12-14T14:41:53;98419.45;;;4.37;100.00
23899;BME280;20544;50.018;20.010;2023-12-14T14:45:11;98423.57;;;4.40;100.00
23899;BME280;20544;50.018;20.010;2023-12-14T14:48:28;98426.88;;;4.42;100.00
23899;BME280;20544;50.018;20.010;2023-12-14T14:51:48;98436.26;;;4.44;100.00
23899;BME280;20544;50.018;20.010;2023-12-14T14:55:06;98436.63;;;4.49;100.00
23899;BME280;20544;50.018;20.010;2023-12-14T14:58:28;98440.75;;;4.52;100.00
23899;BME280;20544;50.018;20.010;2023-12-14T15:01:46;98443.69;;;4.49;100.00
23899;BME280;20544;50.018;20.010;2023-12-14T15:05:16;98443.82;;;4.47;100.00
23899;BME280;20544;50.018;20.010;2023-12-14T15:08:37;98453.58;;;4.37;100.00
23899;BME280;20544;50.018;20.010;2023-12-14T15:11:54;98455.40;;;4.36;100.00
23899;BME280;20544;50.018;20.010;2023-12-14T15:15:12;98445.05;;;4.35;100.00
23899;BME280;20544;50.018;20.010;2023-12-14T15:18:29;98455.55;;;4.35;100.00
23899;BME280;20544;50.018;20.010;2023-12-14T15:21:53;98449.77;;;4.31;100.00
23899;BME280;20544;50.018;20.010;2023-12-14T15:25:13;98456.16;;;4.29;100.00
23899;BME280;20544;50.018;20.010;2023-12-14T15:28:34;98460.41;;;4.30;100.00
23899;BME280;20544;50.018;20.010;2023-12-14T15:31:55;98459.80;;;4.36;100.00
23899;BME280;20544;50.018;20.010;2023-12-14T15:35:12;98468.90;;;4.42;100.00
23899;BME280;20544;50.018;20.010;2023-12-14T15:38:31;98476.63;;;4.43;100.00
23899;BME280;20544;50.018;20.010;2023-12-14T15:41:50;98476.63;;;4.43;100.00
23899;BME280;20544;50.018;20.010;2023-12-14T15:45:12;98478.88;;;4.38;100.00
23899;BME280;20544;50.018;20.010;2023-12-14T15:48:34;98483.44;;;4.36;100.00
23899;BME280;20544;50.018;20.010;2023-12-14T15:51:52;98484.56;;;4.33;100.00
23899;BME280;20544;50.018;20.010;2023-12-14T15:55:14;98485.78;;;4.39;100.00
23899;BME280;20544;50.018;20.010;2023-12-14T15:58:36;98491.19;;;4.37;100.00
23899;BME280;20544;50.018;20.010;2023-12-14T16:01:55;98503.09;;;4.32;100.00
23899;BME280;20544;50.018;20.010;2023-12-14T16:05:24;98501.97;;;4.34;100.00
23899;BME280;20544;50.018;20.010;2023-12-14T16:09:13;98504.76;;;4.33;100.00
23899;BME280;20544;50.018;20.010;2023-12-14T16:12:35;98506.54;;;4.32;100.00
23899;BME280;20544;50.018;20.010;2023-12-14T16:15:53;98518.17;;;4.30;100.00
23899;BME280;20544;50.018;20.010;2023-12-14T16:19:19;98519.83;;;4.31;100.00
23899;BME280;20544;50.018;20.010;2023-12-14T16:22:48;98531.45;;;4.28;100.00
23899;BME280;20544;50.018;20.010;2023-12-14T16:26:36;98537.67;;;4.27;100.00
23899;BME280;20544;50.018;20.010;2023-12-14T16:30:05;98545.70;;;4.26;100.00
23899;BME280;20544;50.018;20.010;2023-12-14T16:33:48;98546.92;;;4.31;100.00
23899;BME280;20544;50.018;20.010;2023-12-14T16:37:11;98549.09;;;4.36;100.00
23899;BME280;20544;50.018;20.010;2023-12-14T16:40:49;98560.00;;;4.41;100.00
23899;BME280;20544;50.018;20.010;2023-12-14T16:44:08;98554.88;;;4.40;100.00
23899;BME280;20544;50.018;20.010;2023-12-14T16:47:46;98565.26;;;4.41;100.00
23899;BME280;20544;50.018;20.010;2023-12-14T16:51:12;98569.77;;;4.49;100.00
23899;BME280;20544;50.018;20.010;2023-12-14T16:54:31;98574.70;;;4.52;100.00
23899;BME280;20544;50.018;20.010;2023-12-14T16:58:01;98580.55;;;4.46;100.00
23899;BME280;20544;50.018;20.010;2023-12-14T17:01:22;98587.45;;;4.47;100.00
23899;BME280;20544;50.018;20.010;2023-12-14T17:04:39;98594.80;;;4.43;100.00
23899;BME280;20544;50.018;20.010;2023-12-14T17:07:58;98596.46;;;4.44;100.00
23899;BME280;20544;50.018;20.010;2023-12-14T17:11:22;98597.27;;;4.45;100.00
23899;BME280;20544;50.018;20.010;2023-12-14T17:14:53;98600.69;;;4.55;100.00
23899;BME280;20544;50.018;20.010;2023-12-14T17:18:24;98600.00;;;4.53;100.00
23899;BME280;20544;50.018;20.010;2023-12-14T17:21:44;98610.36;;;4.54;100.00
23899;BME280;20544;50.018;20.010;2023-12-14T17:25:01;98617.11;;;4.57;100.00
23899;BME280;20544;50.018;20.010;2023-12-14T17:28:29;98616.58;;;4.53;100.00
23899;BME280;20544;50.018;20.010;2023-12-14T17:31:50;98614.80;;;4.54;100.00
23899;BME280;20544;50.018;20.010;2023-12-14T17:35:22;98622.83;;;4.52;100.00
23899;BME280;20544;50.018;20.010;2023-12-14T17:38:39;98627.93;;;4.54;100.00
23899;BME280;20544;50.018;20.010;2023-12-14T17:42:11;98628.75;;;4.54;100.00
23899;BME280;20544;50.018;20.010;2023-12-14T17:45:30;98631.09;;;4.58;100.00
23899;BME280;20544;50.018;20.010;2023-12-14T17:49:05;98639.95;;;4.57;100.00
23899;BME280;20544;50.018;20.010;2023-12-14T17:52:26;98644.89;;;4.60;100.00
23899;BME280;20544;50.018;20.010;2023-12-14T17:55:58;98653.23;;;4.55;100.00
23899;BME280;20544;50.018;20.010;2023-12-14T17:59:22;98661.65;;;4.59;100.00
23899;BME280;20544;50.018;20.010;2023-12-14T18:02:40;98661.77;;;4.57;100.00
23899;BME280;20544;50.018;20.010;2023-12-14T18:05:58;98665.09;;;4.59;100.00
23899;BME280;20544;50.018;20.010;2023-12-14T18:09:16;98673.66;;;4.61;100.00
23899;BME280;20544;50.018;20.010;2023-12-14T18:12:34;98671.16;;;4.60;100.00
23899;BME280;20544;50.018;20.010;2023-12-14T18:15:58;98674.63;;;4.60;100.00
23899;BME280;20544;50.018;20.010;2023-12-14T18:19:37;98683.91;;;4.54;100.00
23899;BME280;20544;50.018;20.010;2023-12-14T18:22:59;98689.16;;;4.54;100.00
23899;BME280;20544;50.018;20.010;2023-12-14T18:26:22;98691.13;;;4.52;100.00
23899;BME280;20544;50.018;20.010;2023-12-14T18:29:41;98695.69;;;4.50;100.00
23899;BME280;20544;50.018;20.010;2023-12-14T18:32:58;98695.69;;;4.50;100.00
23899;BME280;20544;50.018;20.010;2023-12-14T18:36:19;98697.20;;;4.53;100.00
23899;BME280;20544;50.018;20.010;2023-12-14T18:39:51;98703.95;;;4.56;100.00
23899;BME280;20544;50.018;20.010;2023-12-14T18:43:28;98716.40;;;4.53;100.00
23899;BME280;20544;50.018;20.010;2023-12-14T18:47:11;98725.39;;;4.51;100.00